Time;durP1;ratioP1;P1;durP2;ratioP2;P2;SDS_P1;SDS_P2;PMS_P1;PMS_P2;Temp;Humidity;BMP_temperature;BMP_pressure;BME280_temperature;BME280_humidity;BME280_pressure;Samples;Min_cycle;Max_cycle;Signal;HPM_P1;HPM_P2
2023/06/26 00:00:47;;;;;;;8.75;6.28;;;;;;;18.42;92.46;98597.72;4485102;31;20550;-66
2023/06/26 00:03:15;;;;;;;9.10;6.00;;;;;;;18.40;92.65;98597.91;4485066;31;20572;-66
2023/06/26 00:05:42;;;;;;;10.57;6.25;;;;;;;18.43;91.73;98600.19;4484773;32;20080;-66
2023/06/26 00:08:09;;;;;;;9.75;6.20;;;;;;;18.44;91.66;98601.03;4484910;31;20096;-66
2023/06/26 00:10:37;;;;;;;10.55;6.32;;;;;;;18.42;91.79;98595.88;4474447;31;20451;-66
2023/06/26 00:13:04;;;;;;;9.85;6.30;;;;;;;18.38;92.00;98596.44;4473140;32;20100;-66
2023/06/26 00:15:32;;;;;;;8.68;6.20;;;;;;;18.35;92.44;98599.50;4484701;31;20092;-66
2023/06/26 00:17:59;;;;;;;8.48;6.07;;;;;;;18.26;92.79;98591.69;4484683;31;20100;-66
2023/06/26 00:20:26;;;;;;;10.07;6.30;;;;;;;18.26;92.72;98590.87;4484525;32;20153;-66
2023/06/26 00:22:58;;;;;;;7.87;6.05;;;;;;;18.19;93.37;98590.78;4484562;31;20089;-66
2023/06/26 00:25:26;;;;;;;11.30;6.00;;;;;;;18.16;93.36;98593.84;4484549;31;20197;-66
2023/06/26 00:27:53;;;;;;;9.35;5.85;;;;;;;18.16;93.75;98595.66;4484437;31;20088;-66
2023/06/26 00:30:20;;;;;;;9.63;6.00;;;;;;;18.22;92.46;98587.75;4484502;31;20123;-66
2023/06/26 00:32:47;;;;;;;7.15;5.15;;;;;;;18.26;92.44;98596.97;4484243;31;20088;-66
2023/06/26 00:35:15;;;;;;;7.03;5.07;;;;;;;18.21;92.36;98593.25;4484358;31;20100;-66
2023/06/26 00:37:44;;;;;;;7.57;5.47;;;;;;;18.22;92.09;98594.91;4484663;31;20469;-65
2023/06/26 00:40:12;;;;;;;11.02;6.15;;;;;;;18.18;92.44;98589.19;4484184;32;20137;-66
2023/06/26 00:42:39;;;;;;;8.85;5.80;;;;;;;18.15;92.34;98594.84;4484416;32;20613;-66
2023/06/26 00:45:07;;;;;;;9.45;5.22;;;;;;;18.15;92.34;98597.47;4484370;31;20095;-66
2023/06/26 00:47:34;;;;;;;6.50;5.35;;;;;;;18.14;92.53;98600.31;4484153;31;20474;-66
2023/06/26 00:50:02;;;;;;;8.07;5.43;;;;;;;18.09;92.96;98592.94;4484391;31;20084;-66
2023/06/26 00:52:30;;;;;;;8.63;5.95;;;;;;;18.04;93.72;98598.00;4484173;32;20101;-66
2023/06/26 00:54:59;;;;;;;9.93;6.62;;;;;;;18.04;94.02;98598.81;4484257;31;20100;-66
2023/06/26 00:57:27;;;;;;;8.35;5.55;;;;;;;18.00;94.52;98597.56;4482812;32;20085;-66
2023/06/26 00:59:54;;;;;;;9.63;6.07;;;;;;;17.95;94.97;98583.25;4484070;31;20139;-66
2023/06/26 01:02:21;;;;;;;8.82;6.68;;;;;;;17.93;95.05;98583.44;4484005;31;20157;-66
2023/06/26 01:04:50;;;;;;;8.65;6.15;;;;;;;18.00;94.13;98586.13;4483971;31;20662;-65
2023/06/26 01:07:18;;;;;;;8.77;6.30;;;;;;;18.00;94.05;98575.53;4483790;31;20122;-65
2023/06/26 01:09:47;;;;;;;12.30;6.45;;;;;;;18.02;94.01;98584.94;4477733;32;20144;-65
2023/06/26 01:12:14;;;;;;;9.63;6.22;;;;;;;17.99;93.84;98576.56;4468003;32;20097;-66
2023/06/26 01:14:41;;;;;;;9.07;6.47;;;;;;;17.95;94.62;98572.62;4481571;32;20502;-66
2023/06/26 01:17:15;;;;;;;12.02;6.07;;;;;;;17.89;94.68;98572.38;4483718;32;20411;-66
2023/06/26 01:19:44;;;;;;;9.20;6.12;;;;;;;17.85;94.96;98575.56;4482787;32;20103;-66
2023/06/26 01:22:20;;;;;;;8.73;5.30;;;;;;;17.87;94.42;98569.06;4483709;31;20175;-65
2023/06/26 01:25:38;;;;;;;8.98;6.62;;;;;;;17.84;94.47;98566.78;4483823;31;20472;-66
2023/06/26 01:28:07;;;;;;;9.05;6.00;;;;;;;17.89;93.58;98569.72;4434552;32;20086;-66
2023/06/26 01:30:44;;;;;;;7.53;5.43;;;;;;;17.81;94.08;98569.81;4421818;32;20789;-65
2023/06/26 01:33:12;;;;;;;15.20;6.45;;;;;;;17.81;94.22;98569.00;4421733;32;20097;-66
2023/06/26 01:35:40;;;;;;;7.93;5.05;;;;;;;17.82;93.64;98568.81;4435786;32;20412;-65
2023/06/26 01:38:14;;;;;;;10.40;6.18;;;;;;;17.82;93.50;98568.81;4436914;32;20132;-66
2023/06/26 01:40:41;;;;;;;13.05;5.65;;;;;;;17.87;93.36;98565.59;4437100;32;20671;-66
2023/06/26 01:43:24;;;;;;;8.48;5.65;;;;;;;17.84;93.25;98561.50;4436509;32;20113;-66
2023/06/26 01:45:55;;;;;;;7.57;5.53;;;;;;;17.85;93.07;98560.50;4424137;32;20304;-66
2023/06/26 01:48:25;;;;;;;7.45;5.45;;;;;;;17.87;93.08;98561.13;4424136;32;20155;-66
2023/06/26 01:50:53;;;;;;;9.35;5.75;;;;;;;17.90;93.26;98565.25;4436956;32;20620;-66
2023/06/26 01:53:24;;;;;;;6.72;4.97;;;;;;;17.91;93.11;98557.12;4423947;32;20097;-66
2023/06/26 01:56:07;;;;;;;7.75;5.45;;;;;;;17.89;92.17;98566.25;4436912;32;20530;-66
2023/06/26 01:58:36;;;;;;;9.13;5.93;;;;;;;17.86;92.35;98556.81;4447097;32;20126;-66
2023/06/26 02:01:04;;;;;;;10.00;5.45;;;;;;;17.83;92.21;98556.38;4485898;31;20164;-66
2023/06/26 02:03:32;;;;;;;10.48;6.20;;;;;;;17.84;92.26;98556.19;4484378;32;20525;-66
2023/06/26 02:05:59;;;;;;;8.68;5.53;;;;;;;17.82;92.23;98558.22;4485695;31;20421;-66
2023/06/26 02:08:27;;;;;;;11.50;5.65;;;;;;;17.85;91.67;98552.53;4485964;31;20156;-66
2023/06/26 02:10:56;;;;;;;10.27;6.25;;;;;;;17.91;91.09;98558.94;4473158;31;20157;-66
2023/06/26 02:13:23;;;;;;;10.00;5.75;;;;;;;17.84;91.53;98555.38;4475999;32;20482;-66
2023/06/26 02:15:50;;;;;;;7.82;5.20;;;;;;;17.82;92.00;98558.22;4485709;31;20088;-66
2023/06/26 02:18:17;;;;;;;10.05;5.82;;;;;;;17.77;92.50;98555.31;4485911;31;20122;-66
2023/06/26 02:20:44;;;;;;;8.82;4.97;;;;;;;17.75;93.09;98552.03;4485753;31;20118;-65
2023/06/26 02:23:12;;;;;;;7.32;5.30;;;;;;;17.76;92.61;98561.63;4485305;31;20119;-66
2023/06/26 02:25:40;;;;;;;9.10;6.07;;;;;;;17.78;92.15;98550.84;4485586;31;20618;-66
2023/06/26 02:28:09;;;;;;;10.48;5.65;;;;;;;17.82;92.19;98558.22;4485510;31;20414;-66
2023/06/26 02:30:36;;;;;;;8.60;5.28;;;;;;;17.84;92.06;98558.84;4485588;31;20100;-66
2023/06/26 02:33:04;;;;;;;9.52;5.12;;;;;;;17.95;91.88;98562.03;4485293;31;20122;-66
2023/06/26 02:35:32;;;;;;;8.65;5.28;;;;;;;17.96;91.68;98558.38;4485455;31;20447;-66
2023/06/26 02:37:59;;;;;;;9.25;5.87;;;;;;;17.94;91.88;98565.69;4485549;32;20096;-66
2023/06/26 02:40:27;;;;;;;6.97;4.80;;;;;;;17.90;92.00;98567.91;4485506;31;20096;-66
2023/06/26 02:42:54;;;;;;;8.82;6.03;;;;;;;17.89;92.36;98567.06;4485462;31;20088;-66
2023/06/26 02:45:21;;;;;;;11.60;5.87;;;;;;;17.92;91.91;98563.22;4485388;31;20468;-66
2023/06/26 02:47:50;;;;;;;8.07;5.90;;;;;;;17.91;91.99;98567.72;4484555;31;20092;-66
2023/06/26 02:50:17;;;;;;;8.15;5.72;;;;;;;17.90;91.99;98560.75;4485415;32;20107;-66
2023/06/26 02:52:47;;;;;;;9.95;6.10;;;;;;;17.91;92.29;98566.88;4485698;31;20104;-66
2023/06/26 02:55:15;;;;;;;9.63;5.82;;;;;;;17.86;92.38;98569.25;4485457;31;20096;-66
2023/06/26 02:57:42;;;;;;;10.18;6.20;;;;;;;17.80;92.59;98564.72;4485587;31;20492;-66
2023/06/26 03:00:11;;;;;;;10.85;6.15;;;;;;;17.75;92.87;98573.22;4485308;31;20088;-66
2023/06/26 03:02:39;;;;;;;11.30;5.90;;;;;;;17.71;93.20;98566.66;4485663;31;20127;-66
2023/06/26 03:05:08;;;;;;;9.50;5.90;;;;;;;17.69;93.02;98564.19;4485446;32;20092;-66
2023/06/26 03:07:36;;;;;;;9.68;5.85;;;;;;;17.66;93.06;98571.72;4485850;31;20096;-66
2023/06/26 03:10:05;;;;;;;8.35;5.53;;;;;;;17.60;93.81;98575.09;4478636;31;20240;-65
2023/06/26 03:12:32;;;;;;;10.00;5.70;;;;;;;17.50;94.49;98573.59;4469964;32;20154;-66
2023/06/26 03:14:59;;;;;;;8.68;5.40;;;;;;;17.47;94.90;98566.00;4485466;31;20096;-66
2023/06/26 03:17:26;;;;;;;8.70;5.72;;;;;;;17.40;95.62;98575.69;4485533;32;20122;-66
2023/06/26 03:19:54;;;;;;;6.50;4.93;;;;;;;17.32;96.30;98573.16;4485490;31;20092;-66
2023/06/26 03:22:21;;;;;;;7.20;5.40;;;;;;;17.37;96.27;98576.06;4485320;32;20096;-65
2023/06/26 03:24:49;;;;;;;8.07;5.45;;;;;;;17.33;96.76;98585.38;4484961;31;20108;-66
2023/06/26 03:27:16;;;;;;;14.55;6.00;;;;;;;17.35;97.16;98584.19;4485483;31;20088;-66
2023/06/26 03:29:46;;;;;;;10.30;5.93;;;;;;;17.41;96.70;98582.66;4485337;31;20461;-65
2023/06/26 03:32:14;;;;;;;9.13;5.65;;;;;;;17.44;97.44;98586.72;4485320;31;20512;-66
2023/06/26 03:34:41;;;;;;;8.88;5.72;;;;;;;17.54;96.55;98584.63;4485059;31;20131;-66
2023/06/26 03:37:08;;;;;;;9.10;5.40;;;;;;;17.55;96.70;98586.25;4485275;31;20164;-66
2023/06/26 03:39:35;;;;;;;9.32;5.60;;;;;;;17.53;96.76;98589.09;4485265;31;20552;-66
2023/06/26 03:42:03;;;;;;;10.82;5.30;;;;;;;17.59;96.92;98584.88;4485151;31;20097;-66
2023/06/26 03:44:30;;;;;;;10.43;5.97;;;;;;;17.76;96.08;98588.12;4485043;31;20157;-66
2023/06/26 03:46:57;;;;;;;9.13;5.62;;;;;;;17.97;95.31;98591.81;4485131;31;20096;-66
2023/06/26 03:49:24;;;;;;;10.88;5.47;;;;;;;18.06;94.92;98601.28;4484863;31;20138;-66
2023/06/26 03:51:52;;;;;;;9.90;6.75;;;;;;;18.19;94.65;98596.09;4485069;32;20104;-66
2023/06/26 03:54:21;;;;;;;11.00;5.62;;;;;;;18.27;93.93;98598.63;4484905;31;20109;-65
2023/06/26 03:56:48;;;;;;;7.75;5.20;;;;;;;18.35;93.34;98600.31;4484738;31;20104;-65
2023/06/26 03:59:15;;;;;;;9.15;5.68;;;;;;;18.40;92.95;98605.87;4484777;31;20126;-66
2023/06/26 04:01:45;;;;;;;11.18;5.68;;;;;;;18.43;93.41;98604.66;4467555;31;20155;-66
2023/06/26 04:04:13;;;;;;;7.82;5.40;;;;;;;18.51;92.19;98606.37;4473556;32;20105;-66
2023/06/26 04:06:41;;;;;;;9.57;5.60;;;;;;;18.73;91.45;98607.16;4470266;31;20567;-66
2023/06/26 04:09:08;;;;;;;8.70;5.50;;;;;;;18.94;89.63;98604.44;4468760;32;20146;-66
2023/06/26 04:11:35;;;;;;;13.35;5.47;;;;;;;18.82;89.78;98594.53;4472062;31;20112;-66
2023/06/26 04:14:03;;;;;;;7.90;5.30;;;;;;;18.89;89.19;98601.53;4467910;32;20165;-66
2023/06/26 04:16:30;;;;;;;7.07;5.10;;;;;;;19.11;88.30;98606.78;4467898;32;20226;-66
2023/06/26 04:18:58;;;;;;;10.73;5.25;;;;;;;19.10;88.93;98602.47;4469186;31;20123;-66
2023/06/26 04:21:25;;;;;;;7.68;5.45;;;;;;;19.22;90.35;98600.91;4467333;32;20129;-66
2023/06/26 04:23:52;;;;;;;15.93;5.55;;;;;;;19.31;88.78;98605.03;4471059;32;20123;-66
2023/06/26 04:26:19;;;;;;;6.87;5.40;;;;;;;19.42;88.36;98605.50;4470963;32;20164;-66
2023/06/26 04:28:46;;;;;;;7.00;5.18;;;;;;;19.45;88.61;98599.78;4474174;32;20112;-66
2023/06/26 04:31:13;;;;;;;8.60;5.72;;;;;;;19.53;88.04;98610.25;4470711;32;20093;-66
2023/06/26 04:33:41;;;;;;;8.80;5.30;;;;;;;19.58;88.92;98609.66;4467206;32;20100;-66
2023/06/26 04:36:11;;;;;;;5.87;4.85;;;;;;;19.67;88.76;98611.91;4466451;32;20093;-66
2023/06/26 04:38:38;;;;;;;9.32;5.65;;;;;;;19.85;88.44;98610.56;4467283;32;20124;-66
2023/06/26 04:41:05;;;;;;;10.00;5.62;;;;;;;20.03;87.69;98602.84;4469646;32;20116;-66
2023/06/26 04:43:32;;;;;;;9.88;5.53;;;;;;;20.22;86.76;98613.69;4470703;32;20097;-66
2023/06/26 04:45:59;;;;;;;6.85;4.62;;;;;;;20.47;86.78;98607.75;4468890;31;20201;-66
2023/06/26 04:48:30;;;;;;;9.90;4.87;;;;;;;20.65;85.32;98608.00;4469924;32;20101;-66
2023/06/26 04:50:58;;;;;;;10.75;5.30;;;;;;;20.78;85.15;98609.00;4475741;32;20153;-66
2023/06/26 04:53:26;;;;;;;8.20;4.97;;;;;;;21.03;84.03;98615.31;4471553;32;20101;-66
2023/06/26 04:55:53;;;;;;;8.02;4.45;;;;;;;21.23;80.80;98609.09;4468929;31;20127;-66
2023/06/26 04:58:20;;;;;;;5.80;4.35;;;;;;;21.27;80.02;98618.28;4469841;32;20160;-66
2023/06/26 05:00:48;;;;;;;6.28;4.68;;;;;;;21.47;79.69;98614.75;4466905;32;20146;-66
2023/06/26 05:03:17;;;;;;;11.75;4.72;;;;;;;21.66;78.75;98618.38;4466124;32;20088;-66
2023/06/26 05:05:45;;;;;;;11.18;4.78;;;;;;;21.89;76.13;98623.19;4475503;31;20584;-66
2023/06/26 05:08:23;;;;;;;9.52;5.32;;;;;;;22.09;75.23;98620.38;4471925;32;20105;-66
2023/06/26 05:10:50;;;;;;;5.40;4.35;;;;;;;22.25;73.39;98625.19;4470075;32;20088;-65
2023/06/26 05:13:19;;;;;;;6.82;4.35;;;;;;;22.39;74.71;98620.63;4472157;32;20455;-66
2023/06/26 05:15:46;;;;;;;6.78;3.92;;;;;;;22.62;72.60;98625.38;4475669;32;20522;-66
2023/06/26 05:18:13;;;;;;;9.57;4.70;;;;;;;22.63;69.81;98620.81;4477002;32;20123;-66
2023/06/26 05:20:41;;;;;;;11.32;4.80;;;;;;;22.79;70.54;98611.44;4470512;32;20542;-66
2023/06/26 05:23:10;;;;;;;10.55;4.68;;;;;;;23.01;71.60;98618.00;4474503;32;20112;-66
2023/06/26 05:25:38;;;;;;;8.27;4.70;;;;;;;22.93;68.96;98623.63;4473695;32;20108;-66
2023/06/26 05:28:06;;;;;;;10.13;4.28;;;;;;;23.08;70.31;98619.78;4476365;32;20088;-66
2023/06/26 05:30:35;;;;;;;4.95;4.15;;;;;;;23.15;69.87;98612.53;4471741;32;20532;-66
2023/06/26 05:33:03;;;;;;;6.60;4.00;;;;;;;23.18;66.32;98622.78;4467818;31;20093;-66
2023/06/26 05:35:30;;;;;;;9.00;5.00;;;;;;;23.39;65.77;98624.19;4472101;32;20505;-66
2023/06/26 05:37:59;;;;;;;7.43;4.28;;;;;;;23.62;67.36;98620.00;4470529;32;20463;-66
2023/06/26 05:40:26;;;;;;;6.05;4.10;;;;;;;23.71;66.53;98626.69;4473192;32;20096;-66
2023/06/26 05:42:54;;;;;;;6.75;4.47;;;;;;;23.87;65.40;98625.25;4472074;31;20088;-66
2023/06/26 05:45:21;;;;;;;9.35;4.62;;;;;;;23.78;66.79;98624.72;4470817;32;20092;-66
2023/06/26 05:47:50;;;;;;;9.25;4.53;;;;;;;23.87;69.82;98623.38;4471449;32;20097;-66
2023/06/26 05:50:18;;;;;;;7.35;4.60;;;;;;;23.95;66.29;98624.91;4473441;32;20133;-64
2023/06/26 05:52:45;;;;;;;10.93;4.32;;;;;;;23.87;65.46;98625.25;4471980;32;20096;-66
2023/06/26 05:55:13;;;;;;;7.55;4.80;;;;;;;24.01;67.56;98626.72;4466930;32;20180;-66
2023/06/26 05:57:41;;;;;;;7.90;4.75;;;;;;;23.89;64.05;98626.66;4472296;31;20120;-66
2023/06/26 06:00:10;;;;;;;7.65;4.50;;;;;;;23.90;63.36;98624.78;4470850;32;20151;-66
2023/06/26 06:02:39;;;;;;;7.80;4.18;;;;;;;23.84;65.45;98625.69;4475647;32;20122;-67
2023/06/26 06:05:07;;;;;;;9.20;5.62;;;;;;;24.16;67.83;98626.25;4473289;32;20140;-66
2023/06/26 06:07:35;;;;;;;9.02;4.97;;;;;;;24.37;67.82;98634.81;4472091;32;20119;-66
2023/06/26 06:10:03;;;;;;;8.18;4.95;;;;;;;24.09;61.49;98626.38;4473758;32;20097;-66
2023/06/26 06:12:30;;;;;;;12.98;5.75;;;;;;;24.24;60.24;98625.94;4473085;32;20134;-66
2023/06/26 06:14:57;;;;;;;8.82;5.45;;;;;;;24.21;62.06;98634.44;4474288;32;20100;-66
2023/06/26 06:17:25;;;;;;;12.07;5.05;;;;;;;24.34;61.03;98629.91;4468085;32;20124;-66
2023/06/26 06:19:52;;;;;;;8.85;5.20;;;;;;;24.26;62.06;98629.19;4472099;32;20109;-66
2023/06/26 06:22:19;;;;;;;9.80;4.75;;;;;;;24.38;62.77;98637.25;4468406;32;20131;-66
2023/06/26 06:24:49;;;;;;;14.05;4.87;;;;;;;24.33;59.41;98637.16;4468973;32;20127;-66
2023/06/26 06:27:18;;;;;;;10.13;5.45;;;;;;;24.16;59.58;98639.63;4471624;32;20100;-66
2023/06/26 06:29:45;;;;;;;10.48;4.93;;;;;;;24.27;61.83;98633.50;4471710;32;20100;-66
2023/06/26 06:32:12;;;;;;;8.93;5.28;;;;;;;24.21;59.67;98641.63;4471595;32;20097;-66
2023/06/26 06:34:40;;;;;;;7.93;4.90;;;;;;;24.43;60.99;98642.72;4471127;32;20462;-66
2023/06/26 06:37:07;;;;;;;12.50;5.18;;;;;;;24.25;58.75;98634.78;4472908;32;20088;-66
2023/06/26 06:39:34;;;;;;;6.93;4.78;;;;;;;24.34;62.23;98641.44;4471445;32;20093;-66
2023/06/26 06:42:01;;;;;;;8.43;5.03;;;;;;;24.71;64.40;98651.16;4472679;32;20540;-67
2023/06/26 06:44:30;;;;;;;9.00;5.93;;;;;;;24.71;61.95;98635.09;4474036;32;20122;-66
2023/06/26 06:46:57;;;;;;;9.48;6.18;;;;;;;24.94;66.34;98639.66;4472175;31;20080;-66
2023/06/26 06:49:25;;;;;;;9.10;5.97;;;;;;;24.84;64.86;98634.06;4473944;32;20146;-66
2023/06/26 06:51:52;;;;;;;10.73;6.80;;;;;;;24.65;66.55;98641.38;4471092;31;20124;-66
2023/06/26 06:54:19;;;;;;;9.65;6.43;;;;;;;24.51;65.66;98646.13;4468447;32;20561;-67
2023/06/26 06:56:47;;;;;;;7.10;5.85;;;;;;;24.45;66.87;98643.34;4468805;32;20112;-66
2023/06/26 06:59:14;;;;;;;8.52;5.90;;;;;;;24.40;67.99;98643.19;4470648;32;20104;-66
2023/06/26 07:01:41;;;;;;;7.18;5.18;;;;;;;24.41;66.61;98638.66;4470350;31;20124;-66
2023/06/26 07:04:08;;;;;;;13.90;5.43;;;;;;;24.50;62.15;98641.81;4468200;32;20560;-66
2023/06/26 07:06:35;;;;;;;8.93;6.00;;;;;;;24.75;59.95;98637.06;4473391;32;20752;-66
2023/06/26 07:09:03;;;;;;;7.12;5.85;;;;;;;24.85;60.50;98633.03;4473170;32;20119;-66
2023/06/26 07:11:30;;;;;;;9.95;5.30;;;;;;;24.82;59.75;98636.97;4473844;32;20123;-66
2023/06/26 07:13:58;;;;;;;7.20;5.90;;;;;;;24.85;59.68;98631.16;4475597;32;20101;-66
2023/06/26 07:16:25;;;;;;;7.47;5.78;;;;;;;24.72;63.61;98632.19;4472075;31;20092;-67
2023/06/26 07:18:52;;;;;;;10.80;5.20;;;;;;;24.70;62.38;98631.63;4473429;32;20120;-66
2023/06/26 07:21:19;;;;;;;6.28;5.03;;;;;;;25.00;60.76;98637.88;4470698;31;20429;-66
2023/06/26 07:23:46;;;;;;;10.38;5.65;;;;;;;25.16;60.62;98634.50;4472929;31;20097;-67
2023/06/26 07:26:14;;;;;;;8.05;5.68;;;;;;;25.30;59.09;98629.75;4471997;32;20088;-66
2023/06/26 07:28:41;;;;;;;10.30;5.85;;;;;;;25.36;59.02;98630.63;4490296;31;20129;-67
2023/06/26 07:31:09;;;;;;;11.45;5.93;;;;;;;25.37;60.03;98626.91;4473629;32;20104;-66
2023/06/26 07:33:36;;;;;;;17.37;8.48;;;;;;;25.26;59.72;98626.66;4468438;32;20108;-66
2023/06/26 07:36:04;;;;;;;10.07;6.30;;;;;;;25.24;67.55;98623.41;4472990;32;20161;-66
2023/06/26 07:38:31;;;;;;;10.00;6.03;;;;;;;25.35;64.30;98626.34;4474080;32;20131;-66
2023/06/26 07:40:58;;;;;;;11.10;6.05;;;;;;;25.48;64.78;98631.41;4473471;32;20092;-66
2023/06/26 07:43:25;;;;;;;8.60;6.00;;;;;;;25.27;59.97;98628.31;4471546;32;20534;-66
2023/06/26 07:45:53;;;;;;;7.03;5.68;;;;;;;25.08;63.20;98629.50;4475015;31;20111;-66
2023/06/26 07:48:20;;;;;;;7.80;5.70;;;;;;;25.21;63.00;98634.63;4473100;32;20239;-65
2023/06/26 07:50:48;;;;;;;12.40;6.80;;;;;;;25.29;63.05;98628.91;4475220;32;20088;-67
2023/06/26 07:53:16;;;;;;;13.93;7.43;;;;;;;25.29;64.51;98628.91;4474936;32;20092;-67
2023/06/26 07:55:43;;;;;;;8.75;6.43;;;;;;;25.22;64.60;98641.59;4470536;32;20112;-66
2023/06/26 07:58:10;;;;;;;8.35;6.25;;;;;;;24.82;68.18;98636.97;4467564;32;20134;-65
2023/06/26 08:00:38;;;;;;;10.93;6.57;;;;;;;24.61;68.21;98641.84;4471748;32;20113;-66
2023/06/26 08:03:05;;;;;;;11.95;7.15;;;;;;;24.25;70.63;98640.97;4475622;32;20154;-67
2023/06/26 08:05:38;;;;;;;22.33;9.68;;;;;;;24.08;71.59;98642.66;4475474;32;20503;-66
2023/06/26 08:08:06;;;;;;;8.65;7.18;;;;;;;23.77;71.53;98644.50;4470569;32;20116;-66
2023/06/26 08:10:34;;;;;;;10.00;6.90;;;;;;;23.64;73.23;98642.00;4470122;32;20104;-66
2023/06/26 08:13:01;;;;;;;13.43;7.82;;;;;;;23.60;72.06;98640.81;4470283;32;20179;-66
2023/06/26 08:15:29;;;;;;;9.88;6.70;;;;;;;23.69;72.31;98642.13;4472778;32;20149;-66
2023/06/26 08:17:56;;;;;;;19.42;8.52;;;;;;;23.83;69.35;98638.25;4465638;32;20083;-66
2023/06/26 08:20:23;;;;;;;12.05;7.45;;;;;;;24.15;70.36;98642.53;4470204;32;20123;-66
2023/06/26 08:22:52;;;;;;;95.47;18.10;;;;;;;24.25;68.13;98645.50;4470562;32;20089;-67
2023/06/26 08:25:20;;;;;;;13.43;6.78;;;;;;;24.16;68.22;98650.34;4475308;31;20127;-66
2023/06/26 08:27:47;;;;;;;8.57;5.60;;;;;;;24.01;66.27;98644.59;4468852;31;20100;-67
2023/06/26 08:30:15;;;;;;;15.63;6.45;;;;;;;23.84;65.02;98642.53;4471330;31;20134;-65
2023/06/26 08:32:42;;;;;;;8.65;5.70;;;;;;;24.02;62.97;98648.94;4475001;32;20135;-66
2023/06/26 08:35:10;;;;;;;12.55;6.70;;;;;;;24.35;62.85;98652.97;4468624;32;20395;-66
2023/06/26 08:37:38;;;;;;;9.13;5.47;;;;;;;24.69;61.00;98647.91;4464382;32;20119;-67
2023/06/26 08:40:06;;;;;;;13.88;5.78;;;;;;;24.76;58.98;98643.28;4471056;32;20108;-67
2023/06/26 08:42:33;;;;;;;11.85;5.68;;;;;;;24.92;58.86;98639.91;4471387;32;20131;-67
2023/06/26 08:45:01;;;;;;;10.68;5.93;;;;;;;25.03;59.83;98637.44;4472429;32;20088;-66
2023/06/26 08:47:30;;;;;;;7.32;4.72;;;;;;;25.10;60.41;98644.31;4466265;32;20435;-66
2023/06/26 08:50:14;;;;;;;7.15;5.20;;;;;;;25.25;57.40;98635.75;4467937;32;20109;-67
2023/06/26 08:53:08;;;;;;;7.80;5.47;;;;;;;25.47;58.19;98643.22;4459206;32;20474;-67
2023/06/26 08:55:36;;;;;;;7.25;4.60;;;;;;;25.31;57.41;98636.72;4468313;32;20118;-67
2023/06/26 08:58:04;;;;;;;14.93;6.03;;;;;;;25.38;57.23;98639.28;4470595;32;20169;-67
2023/06/26 09:00:31;;;;;;;9.35;5.15;;;;;;;25.63;56.34;98642.47;4475190;32;20090;-67
2023/06/26 09:02:59;;;;;;;7.18;4.93;;;;;;;25.71;54.07;98640.44;4474240;32;20114;-67
2023/06/26 09:05:31;;;;;;;8.38;4.55;;;;;;;25.61;53.42;98641.88;4471340;31;20116;-67
2023/06/26 09:07:59;;;;;;;6.68;4.72;;;;;;;25.57;54.25;98640.75;4469259;32;20211;-67
2023/06/26 09:10:27;;;;;;;8.30;4.78;;;;;;;25.73;57.24;98641.84;4472291;32;20125;-67
2023/06/26 09:12:57;;;;;;;6.75;4.87;;;;;;;25.79;52.84;98643.56;4468177;32;21718;-67
2023/06/26 09:15:25;;;;;;;9.93;5.47;;;;;;;26.00;54.95;98639.41;4471423;32;20105;-67
2023/06/26 09:17:56;;;;;;;6.97;4.70;;;;;;;25.68;53.24;98639.06;4474917;32;20134;-67
2023/06/26 09:20:27;;;;;;;7.82;4.97;;;;;;;25.73;55.86;98641.03;4474630;32;20472;-67
2023/06/26 09:22:56;;;;;;;6.30;4.97;;;;;;;25.93;54.41;98640.59;4468457;32;20126;-67
2023/06/26 09:25:23;;;;;;;7.45;5.60;;;;;;;26.03;53.33;98638.94;4470362;32;20434;-67
2023/06/26 09:27:51;;;;;;;8.40;5.07;;;;;;;26.19;53.34;98637.34;4468053;32;20265;-67
2023/06/26 09:30:19;;;;;;;9.13;5.43;;;;;;;26.32;54.74;98643.47;4473645;32;20133;-67
2023/06/26 09:32:47;;;;;;;11.93;5.07;;;;;;;26.40;52.63;98645.72;4473696;32;20137;-67
2023/06/26 09:35:14;;;;;;;7.18;5.12;;;;;;;26.56;54.01;98639.56;4475081;31;20119;-67
2023/06/26 09:37:43;;;;;;;9.52;5.25;;;;;;;26.53;53.43;98631.19;4474646;32;20127;-67
2023/06/26 09:40:10;;;;;;;7.90;5.57;;;;;;;26.57;53.46;98634.97;4461276;32;20116;-67
2023/06/26 09:42:37;;;;;;;7.90;5.30;;;;;;;26.52;52.06;98635.72;4481020;32;20096;-67
2023/06/26 09:45:05;;;;;;;11.40;5.65;;;;;;;26.56;51.66;98634.19;4483094;31;20557;-67
2023/06/26 09:47:34;;;;;;;6.40;4.68;;;;;;;26.71;51.73;98633.62;4478658;31;20153;-67
2023/06/26 09:50:03;;;;;;;5.75;4.60;;;;;;;26.29;52.08;98636.69;4481767;31;20127;-67
2023/06/26 09:52:31;;;;;;;6.05;5.10;;;;;;;25.75;54.38;98622.81;4481503;31;20159;-67
2023/06/26 09:55:08;;;;;;;6.15;4.57;;;;;;;25.38;55.35;98623.19;4480699;32;20318;-67
2023/06/26 09:57:38;;;;;;;7.78;4.95;;;;;;;25.21;56.95;98621.22;4483082;32;20447;-67
2023/06/26 10:00:07;;;;;;;5.57;4.72;;;;;;;25.58;54.26;98622.78;4479044;31;20103;-67
2023/06/26 10:02:38;;;;;;;7.90;5.15;;;;;;;26.06;54.62;98629.59;4471300;32;20097;-66
2023/06/26 10:05:05;;;;;;;9.73;5.20;;;;;;;26.58;52.13;98622.37;4480959;31;20187;-67
2023/06/26 10:07:33;;;;;;;7.90;4.68;;;;;;;26.63;51.48;98622.44;4482496;32;20139;-67
2023/06/26 10:10:02;;;;;;;6.28;4.40;;;;;;;26.51;50.78;98628.72;4480173;32;20441;-67
2023/06/26 10:12:30;;;;;;;6.57;4.87;;;;;;;26.42;50.93;98622.16;4477176;32;20583;-67
2023/06/26 10:14:58;;;;;;;5.60;4.62;;;;;;;26.75;50.29;98623.19;4477115;32;20108;-67
2023/06/26 10:17:29;;;;;;;8.43;5.32;;;;;;;27.31;50.88;98612.38;4484090;31;20104;-67
2023/06/26 10:19:58;;;;;;;8.98;4.87;;;;;;;27.16;50.07;98621.09;4479307;31;20099;-66
2023/06/26 10:22:29;;;;;;;7.15;4.10;;;;;;;27.40;49.76;98616.31;4470827;31;20124;-67
2023/06/26 10:24:58;;;;;;;4.80;3.80;;;;;;;27.45;49.63;98615.56;4469063;32;20088;-66
2023/06/26 10:27:28;;;;;;;6.82;4.53;;;;;;;27.01;50.14;98616.31;4473540;31;22093;-67
2023/06/26 10:29:58;;;;;;;7.37;4.47;;;;;;;26.48;50.14;98620.34;4469668;32;20160;-67
2023/06/26 10:32:26;;;;;;;5.70;4.43;;;;;;;26.43;50.35;98621.06;4469267;32;20130;-66
2023/06/26 10:34:53;;;;;;;5.90;4.72;;;;;;;26.86;49.77;98619.59;4471837;32;20104;-67
2023/06/26 10:37:21;;;;;;;6.53;4.60;;;;;;;26.92;50.94;98609.75;4476971;32;20104;-66
2023/06/26 10:39:51;;;;;;;5.65;4.30;;;;;;;27.34;48.74;98619.16;4474574;32;20114;-68
2023/06/26 10:42:19;;;;;;;7.70;4.20;;;;;;;27.46;48.94;98617.16;4474472;32;20121;-66
2023/06/26 10:44:47;;;;;;;5.62;4.30;;;;;;;27.42;47.18;98613.37;4474016;32;20679;-67
2023/06/26 10:47:36;;;;;;;6.07;4.22;;;;;;;27.42;46.01;98614.16;4469674;32;20148;-67
2023/06/26 10:50:26;;;;;;;7.37;4.30;;;;;;;27.44;46.55;98611.22;4473589;32;20829;-67
2023/06/26 10:53:14;;;;;;;4.47;3.37;;;;;;;27.39;46.54;98613.84;4473414;32;20116;-67
2023/06/26 10:55:43;;;;;;;5.62;3.75;;;;;;;27.46;44.03;98613.66;4473353;32;20161;-67
2023/06/26 10:58:42;;;;;;;5.50;4.40;;;;;;;27.11;47.39;98617.50;4471182;32;20623;-66
2023/06/26 11:01:23;;;;;;;8.02;4.45;;;;;;;26.85;47.71;98611.78;4467135;32;21043;-67
2023/06/26 11:04:05;;;;;;;5.95;3.92;;;;;;;27.45;46.28;98618.25;4464215;32;20168;-67
2023/06/26 11:06:34;;;;;;;5.43;4.20;;;;;;;27.58;45.64;98617.03;4469173;32;20089;-67
2023/06/26 11:09:05;;;;;;;6.22;4.47;;;;;;;27.76;45.55;98618.56;4469665;32;20175;-66
2023/06/26 11:11:54;;;;;;;7.43;3.90;;;;;;;27.74;43.38;98613.44;4469974;32;20152;-66
2023/06/26 11:14:23;;;;;;;6.25;4.30;;;;;;;27.96;43.70;98615.28;4472883;32;20550;-66
2023/06/26 11:16:50;;;;;;;5.40;4.15;;;;;;;27.76;44.73;98614.00;4465475;31;20478;-66
2023/06/26 11:19:18;;;;;;;4.65;3.62;;;;;;;27.43;44.45;98604.22;4468047;31;20161;-67
2023/06/26 11:21:46;;;;;;;4.55;3.60;;;;;;;27.48;44.49;98611.53;4472174;32;20875;-67
2023/06/26 11:24:13;;;;;;;7.00;3.92;;;;;;;27.39;42.79;98603.06;4471674;32;20184;-67
2023/06/26 11:26:44;;;;;;;5.28;3.67;;;;;;;27.66;43.59;98611.22;4466415;31;20101;-67
2023/06/26 11:29:12;;;;;;;5.50;3.72;;;;;;;27.87;44.64;98600.63;4472493;32;20136;-67
2023/06/26 11:31:41;;;;;;;3.83;3.20;;;;;;;28.04;40.80;98611.31;4472063;32;20168;-67
2023/06/26 11:34:11;;;;;;;6.10;3.97;;;;;;;27.85;43.56;98587.44;4481119;31;20153;-67
2023/06/26 11:36:41;;;;;;;8.65;4.40;;;;;;;27.76;44.33;98597.84;4480346;32;20106;-66
2023/06/26 11:39:09;;;;;;;5.28;4.37;;;;;;;28.18;43.19;98595.53;4470966;32;20100;-67